Time;durP1;ratioP1;P1;durP2;ratioP2;P2;SDS_P1;SDS_P2;PMS_P1;PMS_P2;Temp;Humidity;BMP_temperature;BMP_pressure;BME280_temperature;BME280_humidity;BME280_pressure;Samples;Min_cycle;Max_cycle;Signal;HPM_P1;HPM_P2
2022/07/07 00:00:42;;;;;;;12.13;11.23;;;;;;;19.09;71.99;92886.56;5001469;28;20245;-74
2022/07/07 00:03:07;;;;;;;12.00;10.83;;;;;;;18.92;72.20;92881.41;5001570;28;20244;-73
2022/07/07 00:05:32;;;;;;;11.70;10.97;;;;;;;18.93;72.18;92872.38;5000102;28;20213;-74
2022/07/07 00:07:58;;;;;;;12.83;11.73;;;;;;;18.98;71.59;92864.25;5003981;28;20241;-73
2022/07/07 00:10:23;;;;;;;11.17;10.47;;;;;;;19.06;71.23;92881.94;5002060;28;21038;-73
2022/07/07 00:12:49;;;;;;;11.83;11.03;;;;;;;18.97;71.50;92879.34;5000222;28;20194;-73
2022/07/07 00:15:14;;;;;;;10.27;9.67;;;;;;;18.93;71.52;92873.16;5002931;28;20210;-73
2022/07/07 00:17:40;;;;;;;10.33;9.73;;;;;;;18.93;71.33;92877.66;5001260;28;20225;-73
2022/07/07 00:20:06;;;;;;;10.50;9.60;;;;;;;18.71;71.20;92838.28;5000174;28;20189;-73
2022/07/07 00:22:31;;;;;;;11.73;10.93;;;;;;;18.93;71.40;92877.66;5000738;28;20222;-71
2022/07/07 00:24:57;;;;;;;11.43;10.73;;;;;;;18.83;71.23;92857.66;4985602;28;20215;-74
2022/07/07 00:27:22;;;;;;;10.83;10.20;;;;;;;18.84;70.98;92866.38;5001552;28;21201;-71
2022/07/07 00:29:48;;;;;;;11.73;10.97;;;;;;;18.57;70.67;92824.53;4999280;28;20249;-73
2022/07/07 00:32:13;;;;;;;11.00;10.37;;;;;;;18.74;70.93;92866.75;5000687;28;20232;-73
2022/07/07 00:34:39;;;;;;;12.13;11.33;;;;;;;18.92;70.28;92873.47;5003804;28;20188;-73
2022/07/07 00:37:04;;;;;;;10.27;9.67;;;;;;;18.83;70.42;92884.09;5001071;28;20233;-73
2022/07/07 00:39:29;;;;;;;11.27;10.57;;;;;;;18.89;70.32;92888.13;4999077;28;20213;-73
2022/07/07 00:41:55;;;;;;;10.00;9.40;;;;;;;18.75;70.39;92876.25;4999906;28;20218;-72
2022/07/07 00:44:22;;;;;;;11.37;10.60;;;;;;;18.82;70.15;92884.44;4998736;28;20189;-73
2022/07/07 00:46:53;;;;;;;10.57;9.97;;;;;;;18.71;70.70;92883.25;5000621;28;20291;-73
2022/07/07 00:49:19;;;;;;;10.37;9.77;;;;;;;18.71;70.83;92891.97;5004986;28;20204;-73
2022/07/07 00:51:45;;;;;;;10.27;9.57;;;;;;;18.69;70.41;92890.75;5002992;28;20218;-74
2022/07/07 00:54:11;;;;;;;10.87;9.93;;;;;;;18.56;70.30;92868.75;5005234;28;20195;-73
2022/07/07 00:56:38;;;;;;;11.07;10.37;;;;;;;18.70;69.87;92879.06;5005255;28;20224;-73
2022/07/07 00:59:08;;;;;;;9.93;9.23;;;;;;;18.40;70.45;92853.72;4986157;28;20191;-73
2022/07/07 01:01:38;;;;;;;11.10;10.20;;;;;;;18.55;70.28;92877.00;5004186;28;20228;-72
2022/07/07 01:04:07;;;;;;;10.00;9.50;;;;;;;18.55;70.14;92869.81;5004591;28;20193;-73
2022/07/07 01:06:33;;;;;;;10.67;9.87;;;;;;;18.61;69.95;92875.72;5001396;28;20242;-71
2022/07/07 01:08:59;;;;;;;10.60;9.80;;;;;;;18.51;70.13;92857.56;5003941;28;20225;-71
2022/07/07 01:11:25;;;;;;;10.17;9.57;;;;;;;18.25;70.12;92839.19;5004099;28;20248;-71
2022/07/07 01:13:50;;;;;;;11.43;10.53;;;;;;;18.44;69.23;92859.94;5005171;28;20254;-71
2022/07/07 01:16:16;;;;;;;10.20;9.60;;;;;;;18.58;69.00;92886.94;5001783;28;20377;-71
2022/07/07 01:18:42;;;;;;;9.93;9.33;;;;;;;18.43;68.87;92864.44;5001812;28;20204;-71
2022/07/07 01:21:11;;;;;;;10.37;9.33;;;;;;;18.56;68.91;92883.81;5002860;28;20256;-72
2022/07/07 01:23:36;;;;;;;10.60;10.00;;;;;;;18.45;69.07;92866.78;5002642;28;20212;-72
2022/07/07 01:26:02;;;;;;;9.30;8.80;;;;;;;18.49;67.97;92880.91;5002579;28;20252;-71
2022/07/07 01:28:27;;;;;;;9.00;8.50;;;;;;;18.31;68.28;92861.69;5003389;28;20224;-71
2022/07/07 01:30:53;;;;;;;9.60;9.00;;;;;;;18.49;67.60;92884.31;5005628;28;20216;-70
2022/07/07 01:33:18;;;;;;;9.90;9.40;;;;;;;18.36;67.31;92864.16;5002956;28;20248;-72
2022/07/07 01:35:44;;;;;;;9.10;8.60;;;;;;;18.48;67.58;92877.50;5003864;28;21282;-71
2022/07/07 01:38:09;;;;;;;9.00;8.20;;;;;;;18.33;67.15;92843.66;5003480;28;20219;-71
2022/07/07 01:40:34;;;;;;;8.77;8.30;;;;;;;18.49;67.12;92883.56;5003745;28;20232;-71
2022/07/07 01:43:00;;;;;;;9.03;8.53;;;;;;;18.50;66.82;92875.31;5005571;28;20228;-72
2022/07/07 01:45:25;;;;;;;8.77;8.27;;;;;;;18.46;67.05;92871.75;5003592;28;20192;-71
2022/07/07 01:47:51;;;;;;;9.40;8.90;;;;;;;18.41;67.10;92871.16;5004820;28;20271;-72
2022/07/07 01:50:16;;;;;;;8.80;8.40;;;;;;;18.46;66.18;92873.63;5005032;28;20187;-71
2022/07/07 01:52:41;;;;;;;8.63;8.20;;;;;;;18.44;66.36;92873.94;5004592;28;20298;-71
2022/07/07 01:55:07;;;;;;;8.43;7.93;;;;;;;18.12;66.30;92839.38;5002621;28;20180;-71
2022/07/07 01:57:33;;;;;;;8.60;8.10;;;;;;;18.40;66.16;92878.31;5003564;28;20232;-72
2022/07/07 01:59:58;;;;;;;10.10;9.50;;;;;;;18.23;66.33;92862.50;5001903;28;20216;-72
2022/07/07 02:02:24;;;;;;;9.10;8.70;;;;;;;18.27;66.53;92878.50;5003417;28;20218;-71
2022/07/07 02:04:49;;;;;;;8.70;8.23;;;;;;;18.27;66.01;92870.59;5003272;28;20192;-71
2022/07/07 02:07:14;;;;;;;8.87;8.37;;;;;;;18.31;66.18;92872.28;5001672;28;20228;-70
2022/07/07 02:09:40;;;;;;;8.80;8.40;;;;;;;18.33;65.71;92885.16;5002745;28;20191;-71
2022/07/07 02:12:06;;;;;;;9.67;8.73;;;;;;;18.28;66.02;92870.25;5001092;28;20227;-71
2022/07/07 02:14:31;;;;;;;8.20;7.73;;;;;;;18.29;65.84;92871.03;5001422;28;20204;-72
2022/07/07 02:16:59;;;;;;;8.10;7.77;;;;;;;18.26;65.78;92875.09;5003403;28;20255;-72
2022/07/07 02:19:25;;;;;;;8.97;8.57;;;;;;;18.22;65.28;92868.13;4984766;28;20200;-72
2022/07/07 02:21:51;;;;;;;8.90;8.47;;;;;;;18.27;64.89;92858.13;5001035;28;20220;-71
2022/07/07 02:24:16;;;;;;;9.13;8.73;;;;;;;18.26;65.24;92872.44;5000379;28;20222;-73
2022/07/07 02:26:42;;;;;;;9.13;8.73;;;;;;;18.10;64.74;92849.53;5004554;28;20227;-72
2022/07/07 02:29:07;;;;;;;9.27;8.77;;;;;;;18.14;65.16;92864.41;5005128;28;20209;-71
2022/07/07 02:31:33;;;;;;;9.00;8.50;;;;;;;18.06;65.35;92867.09;5006610;28;20212;-72
2022/07/07 02:33:58;;;;;;;9.80;9.30;;;;;;;18.25;64.52;92880.69;5008242;28;20246;-71
2022/07/07 02:36:24;;;;;;;9.60;9.10;;;;;;;18.22;64.72;92889.25;5005068;28;20251;-72
2022/07/07 02:38:50;;;;;;;8.80;8.40;;;;;;;18.17;64.84;92879.63;5004761;28;20187;-72
2022/07/07 02:41:16;;;;;;;9.03;8.17;;;;;;;18.18;64.93;92877.78;5007641;28;20220;-73
2022/07/07 02:43:41;;;;;;;8.27;7.87;;;;;;;18.10;65.04;92881.22;5005341;28;20204;-72
2022/07/07 02:46:06;;;;;;;9.83;9.33;;;;;;;18.18;64.00;92869.84;5001330;28;20255;-72
2022/07/07 02:48:32;;;;;;;8.60;8.20;;;;;;;18.13;64.59;92880.59;5008617;28;20203;-72
2022/07/07 02:50:57;;;;;;;8.23;7.83;;;;;;;18.16;64.12;92882.59;5005091;28;20248;-72
2022/07/07 02:53:23;;;;;;;8.23;7.83;;;;;;;18.20;64.36;92886.16;5006305;28;20193;-72
2022/07/07 02:55:48;;;;;;;7.90;7.53;;;;;;;18.15;64.26;92878.41;5005989;28;20227;-72
2022/07/07 02:58:19;;;;;;;9.03;8.50;;;;;;;18.11;63.78;92867.69;5004021;28;20197;-72
2022/07/07 03:00:45;;;;;;;7.87;7.50;;;;;;;18.16;64.42;92877.31;5005550;28;20235;-72
2022/07/07 03:03:10;;;;;;;7.60;7.27;;;;;;;18.21;63.62;92877.16;5006338;28;20211;-73
2022/07/07 03:05:36;;;;;;;8.40;8.00;;;;;;;18.26;63.38;92884.88;5006323;28;20184;-72
2022/07/07 03:08:02;;;;;;;8.13;7.73;;;;;;;18.31;62.84;92882.06;5006574;28;20259;-72
2022/07/07 03:10:27;;;;;;;8.57;8.07;;;;;;;18.22;62.53;92870.75;5003139;28;20192;-73
2022/07/07 03:12:53;;;;;;;8.23;7.80;;;;;;;18.39;62.73;92889.19;5006518;28;20187;-72
2022/07/07 03:15:19;;;;;;;8.33;7.83;;;;;;;18.64;61.78;92886.44;5005464;28;20250;-72
2022/07/07 03:17:45;;;;;;;8.57;8.17;;;;;;;19.27;60.32;92898.56;5006663;28;20318;-73
2022/07/07 03:20:13;;;;;;;8.33;7.93;;;;;;;19.64;58.23;92889.72;5007619;28;20277;-73
2022/07/07 03:22:39;;;;;;;8.37;7.93;;;;;;;20.94;55.10;92896.53;5005350;28;20348;-72
2022/07/07 03:25:06;;;;;;;8.40;8.00;;;;;;;20.80;55.14;92863.50;5004336;28;20190;-73
2022/07/07 03:27:31;;;;;;;7.53;7.17;;;;;;;19.99;56.72;92898.84;5005388;28;20229;-71
2022/07/07 03:29:58;;;;;;;8.43;8.03;;;;;;;19.54;58.24;92890.09;5004109;28;20206;-70
2022/07/07 03:32:23;;;;;;;7.93;7.50;;;;;;;19.11;59.53;92895.72;5003074;28;20932;-71
2022/07/07 03:34:48;;;;;;;8.23;7.80;;;;;;;18.84;60.44;92884.88;5001861;28;20185;-70
2022/07/07 03:37:14;;;;;;;8.27;7.97;;;;;;;20.00;57.00;92895.06;5000857;28;20224;-70
2022/07/07 03:39:40;;;;;;;8.47;8.07;;;;;;;19.94;57.50;92891.09;5001658;28;20193;-71
2022/07/07 03:42:05;;;;;;;7.80;7.40;;;;;;;20.68;55.80;92894.25;5002247;28;20223;-71
2022/07/07 03:44:31;;;;;;;7.63;7.23;;;;;;;20.08;56.42;92885.47;5000647;28;20198;-72
2022/07/07 03:46:56;;;;;;;8.47;7.73;;;;;;;19.16;58.96;92903.47;5000682;28;20238;-70
2022/07/07 03:49:22;;;;;;;8.27;7.87;;;;;;;19.05;60.47;92904.97;5000452;28;20199;-71
2022/07/07 03:51:47;;;;;;;7.40;7.10;;;;;;;19.39;58.92;92903.97;5000116;28;20264;-72
2022/07/07 03:54:13;;;;;;;8.77;8.17;;;;;;;19.20;59.11;92903.63;5002203;28;20209;-72
2022/07/07 03:56:39;;;;;;;8.80;8.30;;;;;;;19.24;59.39;92893.16;5000376;28;20293;-72
2022/07/07 03:59:04;;;;;;;8.87;8.47;;;;;;;19.90;57.63;92910.63;5002478;28;20174;-72
2022/07/07 04:01:30;;;;;;;8.00;7.47;;;;;;;20.35;55.44;92906.09;5000956;28;20234;-72
2022/07/07 04:03:55;;;;;;;8.07;7.60;;;;;;;19.69;57.49;92905.38;5001832;28;20214;-70
2022/07/07 04:06:21;;;;;;;7.90;7.50;;;;;;;19.70;57.76;92906.94;5000938;28;20226;-72
2022/07/07 04:08:46;;;;;;;8.63;8.23;;;;;;;19.89;56.91;92904.53;4999319;28;20233;-73
2022/07/07 04:11:11;;;;;;;8.10;7.63;;;;;;;19.52;58.29;92892.28;5001042;28;20257;-73
2022/07/07 04:13:37;;;;;;;8.97;8.37;;;;;;;20.08;56.89;92904.03;5003240;28;20191;-72
2022/07/07 04:16:02;;;;;;;8.07;7.57;;;;;;;19.85;56.54;92903.66;5001985;28;20273;-72
2022/07/07 04:18:28;;;;;;;8.10;7.70;;;;;;;20.09;56.39;92890.47;4996316;28;20186;-72
2022/07/07 04:20:53;;;;;;;8.03;7.63;;;;;;;19.75;55.59;92890.06;5001476;28;20222;-72
2022/07/07 04:23:18;;;;;;;8.20;7.80;;;;;;;19.57;56.49;92897.41;5008713;28;20194;-71
2022/07/07 04:25:44;;;;;;;8.73;8.33;;;;;;;19.83;57.43;92908.50;5008172;28;20241;-73
2022/07/07 04:28:10;;;;;;;8.50;8.00;;;;;;;19.71;56.46;92913.00;5007516;28;20280;-72
2022/07/07 04:30:35;;;;;;;7.80;7.40;;;;;;;19.79;55.96;92915.56;5006971;28;20195;-72
2022/07/07 04:33:00;;;;;;;9.03;8.30;;;;;;;20.06;56.44;92907.00;5010350;28;20202;-72
2022/07/07 04:35:26;;;;;;;8.03;7.63;;;;;;;20.36;56.31;92912.94;5006584;28;20888;-74
2022/07/07 04:37:51;;;;;;;9.47;8.37;;;;;;;21.31;53.80;92889.31;5010862;28;20289;-76
2022/07/07 04:40:17;;;;;;;7.40;7.10;;;;;;;22.55;50.04;92920.69;5007019;28;20187;-76
2022/07/07 04:42:42;;;;;;;7.95;7.55;;;;;;;22.36;50.23;92924.03;5009420;28;20240;-76
2022/07/07 04:45:08;;;;;;;7.82;7.43;;;;;;;21.13;52.18;92917.22;5008604;28;20908;-76
2022/07/07 04:47:41;;;;;;;7.70;7.40;;;;;;;20.44;54.09;92914.69;5008921;28;20247;-75
2022/07/07 04:50:10;;;;;;;8.10;7.70;;;;;;;20.51;54.42;92894.47;5006610;28;20199;-76
2022/07/07 04:52:36;;;;;;;8.20;7.72;;;;;;;20.14;53.89;92898.22;5006998;28;20290;-76
2022/07/07 04:55:03;;;;;;;9.00;8.47;;;;;;;20.44;54.27;92918.13;5010361;28;20186;-75
2022/07/07 04:57:28;;;;;;;8.70;8.00;;;;;;;20.37;54.43;92909.19;5009191;28;20222;-76
2022/07/07 04:59:54;;;;;;;8.98;8.40;;;;;;;20.50;54.98;92914.16;5011001;28;20189;-76
2022/07/07 05:02:19;;;;;;;7.97;7.60;;;;;;;20.52;55.24;92916.47;5008104;28;20317;-71
2022/07/07 05:04:45;;;;;;;8.03;7.53;;;;;;;20.44;55.03;92915.50;5005854;28;20190;-71
2022/07/07 05:07:10;;;;;;;8.60;8.10;;;;;;;20.43;54.67;92907.84;5001850;28;20297;-76
2022/07/07 05:09:36;;;;;;;8.23;7.78;;;;;;;20.53;53.79;92896.78;5008527;28;20195;-74
2022/07/07 05:12:03;;;;;;;7.45;7.07;;;;;;;21.13;53.41;92902.06;5003249;28;20230;-72
2022/07/07 05:14:28;;;;;;;9.70;8.98;;;;;;;21.90;50.34;92911.41;5005820;28;20289;-76
2022/07/07 05:16:54;;;;;;;7.32;7.03;;;;;;;23.55;45.54;92886.00;5006583;28;20228;-75
2022/07/07 05:19:20;;;;;;;7.93;7.53;;;;;;;23.55;45.72;92916.09;5004241;28;20180;-71
2022/07/07 05:21:45;;;;;;;7.43;6.93;;;;;;;25.11;42.29;92907.00;5005788;28;20236;-72
2022/07/07 05:24:10;;;;;;;7.43;6.93;;;;;;;26.27;39.66;92913.81;5006176;28;20189;-72
2022/07/07 05:26:36;;;;;;;7.22;6.88;;;;;;;25.29;40.89;92905.38;5006634;28;20225;-71
2022/07/07 05:29:01;;;;;;;7.00;6.70;;;;;;;25.69;40.08;92899.38;5006134;28;20766;-72
2022/07/07 05:31:27;;;;;;;7.95;7.55;;;;;;;24.18;43.16;92916.56;5003779;28;20233;-72
2022/07/07 05:33:52;;;;;;;8.07;7.57;;;;;;;24.88;42.61;92922.31;5005570;28;20313;-72
2022/07/07 05:36:17;;;;;;;7.57;7.15;;;;;;;22.81;45.99;92908.41;5007032;28;20235;-71
2022/07/07 05:38:45;;;;;;;10.13;9.15;;;;;;;25.09;42.59;92915.38;5005583;28;20214;-69
2022/07/07 05:41:11;;;;;;;7.80;7.15;;;;;;;25.84;39.53;92930.53;5002988;28;20227;-70
2022/07/07 05:43:36;;;;;;;7.10;6.60;;;;;;;27.22;37.31;92919.97;5001058;28;20206;-71
2022/07/07 05:46:02;;;;;;;7.18;6.78;;;;;;;28.73;34.47;92937.47;5002518;28;20227;-73
2022/07/07 05:48:27;;;;;;;7.45;7.05;;;;;;;29.10;32.99;92929.81;5007551;28;20212;-72
2022/07/07 05:50:53;;;;;;;7.00;6.50;;;;;;;27.84;34.91;92922.25;5007445;28;20248;-72
2022/07/07 05:53:18;;;;;;;7.38;6.97;;;;;;;29.48;32.85;92939.75;5005805;28;20215;-70
2022/07/07 05:55:44;;;;;;;6.75;6.35;;;;;;;31.68;29.17;92941.56;5005823;28;20241;-72
2022/07/07 05:58:09;;;;;;;6.13;5.82;;;;;;;32.87;27.21;92950.16;5006304;28;20262;-73
2022/07/07 06:00:35;;;;;;;7.18;6.78;;;;;;;32.24;28.36;92949.06;5006232;28;20222;-72
2022/07/07 06:03:00;;;;;;;6.22;5.63;;;;;;;33.02;26.99;92939.88;5005428;28;20184;-72
2022/07/07 06:05:25;;;;;;;6.88;6.43;;;;;;;31.45;29.00;92941.41;5002988;28;20204;-73
2022/07/07 06:07:51;;;;;;;6.53;6.13;;;;;;;30.14;31.20;92927.25;5005798;28;20240;-69
2022/07/07 06:10:16;;;;;;;6.30;6.00;;;;;;;30.18;31.22;92930.69;5005432;28;20215;-69
2022/07/07 06:12:42;;;;;;;6.65;6.35;;;;;;;33.16;26.87;92948.56;5003408;28;20256;-69
2022/07/07 06:15:09;;;;;;;6.05;5.68;;;;;;;30.96;30.00;92936.41;5003277;28;20295;-70
2022/07/07 06:17:34;;;;;;;10.70;9.65;;;;;;;33.07;27.08;92950.25;4999605;28;20258;-70
2022/07/07 06:20:00;;;;;;;6.50;6.10;;;;;;;31.50;29.56;92927.50;4986909;28;20195;-70
2022/07/07 06:22:26;;;;;;;6.32;5.97;;;;;;;31.40;30.42;92960.75;5003235;28;20365;-70
2022/07/07 06:24:52;;;;;;;6.00;5.70;;;;;;;33.80;27.24;92969.94;5004583;28;20647;-70
2022/07/07 06:27:18;;;;;;;6.80;6.10;;;;;;;31.78;29.29;92969.63;5002357;28;20238;-70
2022/07/07 06:29:45;;;;;;;7.82;7.25;;;;;;;29.77;31.88;92939.72;5001439;28;20188;-68
2022/07/07 06:32:10;;;;;;;6.03;5.72;;;;;;;30.36;32.36;92944.88;5003687;28;20252;-69
2022/07/07 06:34:36;;;;;;;6.28;5.97;;;;;;;33.71;27.88;92961.59;5000994;28;20180;-71
2022/07/07 06:37:01;;;;;;;6.38;6.07;;;;;;;33.00;27.69;92961.22;5002171;28;20235;-71
2022/07/07 06:39:26;;;;;;;7.20;6.80;;;;;;;31.87;29.35;92951.81;5000180;28;20215;-70
2022/07/07 06:41:52;;;;;;;6.28;5.97;;;;;;;31.61;30.30;92955.16;4999389;28;20223;-72
2022/07/07 06:44:17;;;;;;;7.00;6.40;;;;;;;33.20;28.01;92964.75;5000353;28;20219;-71
2022/07/07 06:46:43;;;;;;;6.63;6.30;;;;;;;31.87;29.97;92951.03;5003127;28;20208;-71
2022/07/07 06:49:08;;;;;;;6.97;6.47;;;;;;;29.76;33.16;92940.88;4999459;28;20212;-71
2022/07/07 06:51:34;;;;;;;8.07;7.65;;;;;;;31.71;30.33;92958.91;5002218;28;20225;-70
2022/07/07 06:54:00;;;;;;;7.18;6.55;;;;;;;29.32;33.66;92954.78;5001750;28;20197;-70
2022/07/07 06:56:25;;;;;;;7.15;6.68;;;;;;;25.88;40.52;92942.81;4999886;28;20227;-71
2022/07/07 06:58:51;;;;;;;7.47;7.07;;;;;;;25.36;43.24;92948.25;5002204;28;20186;-71
2022/07/07 07:01:16;;;;;;;7.70;7.32;;;;;;;24.14;46.19;92930.97;5000179;28;20316;-72
2022/07/07 07:03:42;;;;;;;8.57;8.07;;;;;;;24.35;46.39;92942.81;5002716;28;21122;-71
2022/07/07 07:06:08;;;;;;;8.07;7.57;;;;;;;23.27;48.40;92930.75;5003367;28;20228;-71
2022/07/07 07:08:33;;;;;;;7.95;7.22;;;;;;;23.04;49.55;92937.81;5000314;28;20232;-71
2022/07/07 07:10:59;;;;;;;7.15;6.85;;;;;;;23.06;49.49;92924.91;5001150;28;20253;-70
2022/07/07 07:13:24;;;;;;;7.38;7.07;;;;;;;23.15;52.21;92939.59;5003254;28;20195;-70
2022/07/07 07:15:50;;;;;;;8.15;7.65;;;;;;;22.57;51.65;92929.88;5000237;28;20246;-70
2022/07/07 07:18:15;;;;;;;7.30;7.00;;;;;;;22.54;51.86;92930.56;5000379;28;20239;-71
2022/07/07 07:20:41;;;;;;;8.15;7.65;;;;;;;22.88;50.86;92940.50;4997724;28;20205;-70
2022/07/07 07:23:06;;;;;;;7.70;7.32;;;;;;;22.73;50.95;92921.88;5001363;28;20221;-69
2022/07/07 07:25:32;;;;;;;7.97;7.57;;;;;;;22.69;51.06;92911.16;5002717;28;20212;-71
2022/07/07 07:27:58;;;;;;;7.13;6.82;;;;;;;22.61;50.99;92920.09;5001659;28;20267;-70
2022/07/07 07:30:23;;;;;;;7.88;7.47;;;;;;;22.69;51.31;92937.00;4999713;28;20197;-71
2022/07/07 07:32:49;;;;;;;7.18;6.78;;;;;;;22.63;51.48;92915.19;5001198;28;20208;-71
2022/07/07 07:35:14;;;;;;;7.95;7.35;;;;;;;22.66;52.19;92919.84;5000759;28;20196;-69
2022/07/07 07:37:40;;;;;;;8.50;8.10;;;;;;;22.93;51.33;92926.13;5001603;28;20241;-71
2022/07/07 07:40:11;;;;;;;8.18;7.60;;;;;;;22.74;50.99;92932.19;5002066;28;20216;-72
2022/07/07 07:42:37;;;;;;;7.97;7.38;;;;;;;22.63;52.05;92933.06;5003210;28;20249;-71
2022/07/07 07:45:10;;;;;;;8.25;7.72;;;;;;;22.84;52.26;92918.34;5002631;28;20202;-71
2022/07/07 07:47:44;;;;;;;7.85;7.32;;;;;;;23.14;51.65;92930.06;5000551;28;20233;-72
2022/07/07 07:50:12;;;;;;;7.07;6.68;;;;;;;23.14;51.08;92934.63;5002972;28;20220;-72
2022/07/07 07:52:39;;;;;;;7.43;7.03;;;;;;;23.09;50.05;92930.34;5003084;28;20224;-69
2022/07/07 07:55:07;;;;;;;8.23;7.80;;;;;;;23.26;51.15;92924.66;5001476;28;20181;-69
2022/07/07 07:57:32;;;;;;;8.70;8.20;;;;;;;23.33;50.44;92934.69;5003031;28;20240;-68
2022/07/07 07:59:58;;;;;;;7.60;7.30;;;;;;;23.16;49.84;92941.13;5004870;28;20178;-67
2022/07/07 08:02:23;;;;;;;8.52;7.97;;;;;;;23.26;50.56;92937.19;5002689;28;20233;-71
2022/07/07 08:04:49;;;;;;;7.30;6.93;;;;;;;23.28;48.50;92932.28;5003653;28;20218;-68
2022/07/07 08:07:14;;;;;;;7.68;7.20;;;;;;;23.09;48.57;92921.56;5001997;28;20245;-69
2022/07/07 08:09:40;;;;;;;8.02;7.53;;;;;;;23.24;49.33;92940.16;5007378;28;20260;-69
2022/07/07 08:12:05;;;;;;;7.93;7.53;;;;;;;23.75;47.80;92951.56;5006336;28;20229;-69
2022/07/07 08:14:31;;;;;;;8.07;7.68;;;;;;;23.66;45.19;92937.63;5004399;28;20186;-69
2022/07/07 08:16:56;;;;;;;8.40;7.70;;;;;;;23.92;45.20;92945.00;5002737;28;20232;-70
2022/07/07 08:19:21;;;;;;;7.55;7.22;;;;;;;23.55;44.06;92952.66;5006709;28;20226;-69
2022/07/07 08:21:47;;;;;;;8.13;7.72;;;;;;;23.94;46.36;92954.19;5006462;28;20265;-70
2022/07/07 08:24:13;;;;;;;7.45;7.05;;;;;;;24.06;43.90;92946.09;5006986;28;20189;-68
2022/07/07 08:26:39;;;;;;;8.07;7.60;;;;;;;23.78;45.22;92956.94;5003066;28;20238;-70
2022/07/07 08:29:05;;;;;;;7.07;6.78;;;;;;;23.91;44.23;92954.16;5003644;28;20205;-69
2022/07/07 08:31:31;;;;;;;8.40;7.80;;;;;;;24.16;45.35;92955.38;5003281;28;20242;-70
2022/07/07 08:33:56;;;;;;;7.43;6.95;;;;;;;24.34;45.98;92962.63;5003492;28;20195;-71
2022/07/07 08:36:21;;;;;;;7.88;7.47;;;;;;;23.90;46.10;92933.91;5005631;28;20257;-72
2022/07/07 08:38:47;;;;;;;7.05;6.75;;;;;;;23.82;47.51;92956.22;5003116;28;20187;-72
2022/07/07 08:41:13;;;;;;;8.23;7.72;;;;;;;23.65;46.61;92949.44;5002348;28;20231;-72
2022/07/07 08:43:38;;;;;;;7.82;7.40;;;;;;;23.95;46.84;92961.09;5004965;28;20217;-68
2022/07/07 08:46:04;;;;;;;7.53;7.13;;;;;;;23.87;46.69;92967.41;4985154;28;20251;-71
2022/07/07 08:48:29;;;;;;;7.65;7.32;;;;;;;24.08;48.09;92964.41;4991549;28;20245;-72
2022/07/07 08:50:55;;;;;;;7.43;7.03;;;;;;;24.11;47.05;92948.44;4988979;28;20322;-70
2022/07/07 08:53:21;;;;;;;8.15;7.72;;;;;;;23.60;47.63;92958.50;4986178;28;20203;-72
2022/07/07 08:55:47;;;;;;;8.40;7.65;;;;;;;23.96;48.27;92961.84;4983418;28;20281;-73
2022/07/07 08:58:16;;;;;;;7.93;7.53;;;;;;;24.02;45.74;92953.25;4984981;28;20190;-73
2022/07/07 09:00:41;;;;;;;7.93;7.53;;;;;;;24.17;46.34;92944.38;4983365;28;20196;-73
2022/07/07 09:03:07;;;;;;;7.40;7.10;;;;;;;24.44;45.95;92953.22;4984542;28;20206;-72
2022/07/07 09:05:39;;;;;;;8.02;7.53;;;;;;;24.56;45.37;92951.16;4984191;28;20222;-73
2022/07/07 09:08:21;;;;;;;7.18;6.80;;;;;;;24.60;46.99;92952.00;4987049;28;20235;-72
2022/07/07 09:10:47;;;;;;;7.57;7.18;;;;;;;24.28;48.28;92931.97;4985449;28;20242;-72
2022/07/07 09:13:26;;;;;;;7.90;7.40;;;;;;;24.51;49.33;92945.34;4984788;28;20202;-72
2022/07/07 09:16:01;;;;;;;8.75;7.90;;;;;;;24.19;47.94;92944.03;4985280;28;20262;-74
2022/07/07 09:18:40;;;;;;;7.95;7.55;;;;;;;24.57;48.82;92944.72;4981304;28;20191;-73
2022/07/07 09:21:28;;;;;;;7.05;6.70;;;;;;;24.27;45.66;92946.47;4982944;28;20218;-74
2022/07/07 09:23:59;;;;;;;7.70;7.30;;;;;;;23.99;47.02;92935.28;4974279;28;20223;-72
2022/07/07 09:26:45;;;;;;;8.18;7.78;;;;;;;24.00;47.38;92957.41;4993143;28;20218;-73
2022/07/07 09:29:17;;;;;;;8.07;7.68;;;;;;;24.51;48.19;92950.69;5006947;28;20206;-72
2022/07/07 09:32:04;;;;;;;7.95;7.50;;;;;;;24.60;45.33;92948.56;5001701;28;20227;-71
2022/07/07 09:34:31;;;;;;;8.20;7.72;;;;;;;24.90;45.37;92950.22;5002709;28;20189;-72
2022/07/07 09:39:43;;;;;;;8.50;8.00;;;;;;;24.53;45.86;92948.44;5003816;28;20248;-71
2022/07/07 09:42:29;;;;;;;7.38;6.97;;;;;;;24.69;47.56;92943.75;5001531;28;20229;-70
2022/07/07 09:45:00;;;;;;;7.38;7.07;;;;;;;24.72;46.17;92945.72;5003599;28;20230;-73
2022/07/07 09:47:27;;;;;;;8.00;7.53;;;;;;;24.43;45.06;92944.47;4999934;28;20253;-73
2022/07/07 09:50:05;;;;;;;7.50;7.15;;;;;;;25.51;44.16;92939.28;5004004;28;20188;-73
2022/07/07 09:52:32;;;;;;;8.45;8.05;;;;;;;24.83;45.13;92941.31;5001683;28;20597;-71
2022/07/07 09:54:59;;;;;;;8.27;7.88;;;;;;;24.89;46.22;92945.22;5001544;28;20182;-72
2022/07/07 09:57:25;;;;;;;8.82;7.63;;;;;;;24.91;46.26;92946.44;5000093;28;20227;-73
2022/07/07 09:59:51;;;;;;;8.00;7.60;;;;;;;24.45;45.25;92944.88;5002641;28;20266;-75
2022/07/07 10:02:27;;;;;;;7.28;6.97;;;;;;;25.19;46.33;92936.16;5002407;28;20302;-72
2022/07/07 10:04:58;;;;;;;7.68;7.28;;;;;;;26.09;43.48;92927.03;5004054;28;20199;-72
2022/07/07 10:07:27;;;;;;;8.05;7.55;;;;;;;25.82;44.24;92944.25;5001722;28;20253;-73
2022/07/07 10:10:00;;;;;;;7.63;7.28;;;;;;;25.87;43.66;92943.94;5000847;28;20205;-75
2022/07/07 10:12:27;;;;;;;8.75;8.25;;;;;;;25.45;43.12;92930.03;5003179;28;20303;-73
2022/07/07 10:15:00;;;;;;;8.27;7.47;;;;;;;25.47;45.34;92933.13;5002878;28;20199;-76
2022/07/07 10:17:30;;;;;;;8.05;7.45;;;;;;;25.59;44.25;92930.22;5001092;28;20219;-76
2022/07/07 10:19:56;;;;;;;7.95;7.50;;;;;;;24.79;46.26;92916.47;5001544;28;20201;-76
2022/07/07 10:22:26;;;;;;;8.27;7.78;;;;;;;24.66;47.23;92899.88;5003196;28;20222;-74
2022/07/07 10:24:52;;;;;;;8.48;7.97;;;;;;;24.72;46.18;92911.00;5000680;28;20198;-74
2022/07/07 10:27:22;;;;;;;7.95;7.55;;;;;;;25.01;47.14;92915.66;5001058;28;20234;-74
2022/07/07 10:29:52;;;;;;;8.38;7.93;;;;;;;25.82;45.74;92925.53;4999454;28;20255;-74
2022/07/07 10:32:51;;;;;;;7.20;6.80;;;;;;;26.14;42.10;92926.69;5001749;28;20231;-73
2022/07/07 10:35:19;;;;;;;7.80;7.30;;;;;;;25.94;42.56;92916.50;5001312;28;20278;-74
2022/07/07 10:37:55;;;;;;;7.20;6.90;;;;;;;25.88;44.15;92920.63;5002761;28;20219;-74
2022/07/07 10:40:22;;;;;;;7.60;7.20;;;;;;;25.89;43.91;92922.94;5003275;28;21956;-70
2022/07/07 10:43:06;;;;;;;6.95;6.60;;;;;;;25.60;44.10;92923.75;4998839;28;20214;-73
2022/07/07 10:45:32;;;;;;;7.65;7.20;;;;;;;25.12;43.53;92911.25;5001795;28;20198;-73
2022/07/07 10:47:58;;;;;;;7.50;7.15;;;;;;;25.55;44.99;92908.03;5002764;28;20246;-72
2022/07/07 10:50:32;;;;;;;7.72;7.32;;;;;;;25.74;44.12;92907.88;5001079;28;20184;-74
2022/07/07 10:52:58;;;;;;;7.68;7.28;;;;;;;25.92;44.07;92898.13;5003595;28;20544;-72
2022/07/07 10:56:03;;;;;;;7.93;7.40;;;;;;;26.34;43.02;92900.50;5001430;28;20196;-72
2022/07/07 10:58:44;;;;;;;8.45;8.00;;;;;;;25.48;45.12;92902.56;4941398;29;20196;-72
2022/07/07 11:01:09;;;;;;;9.75;9.15;;;;;;;25.61;44.76;92914.59;4937775;29;20249;-71
2022/07/07 11:03:38;;;;;;;7.65;7.25;;;;;;;25.86;44.16;92904.94;4966945;28;20236;-72
2022/07/07 11:06:05;;;;;;;7.18;6.88;;;;;;;25.94;44.29;92906.56;4986258;28;20247;-73
2022/07/07 11:08:36;;;;;;;8.55;8.15;;;;;;;25.99;45.10;92900.94;5000976;28;20258;-74
2022/07/07 11:11:04;;;;;;;8.10;7.70;;;;;;;25.81;45.03;92897.25;5002646;28;20244;-73
2022/07/07 11:13:47;;;;;;;8.82;8.02;;;;;;;25.39;44.71;92887.97;5000915;28;20261;-72
2022/07/07 11:16:21;;;;;;;6.90;6.60;;;;;;;25.50;44.57;92880.81;5001430;28;20250;-71
2022/07/07 11:18:50;;;;;;;8.05;7.45;;;;;;;26.04;46.30;92883.78;5002413;28;20227;-71
2022/07/07 11:21:16;;;;;;;7.60;7.22;;;;;;;26.37;43.42;92879.09;5001535;28;20215;-72
2022/07/07 11:23:47;;;;;;;8.05;7.60;;;;;;;26.18;43.84;92886.59;5002463;28;20191;-73
2022/07/07 11:26:23;;;;;;;7.28;6.88;;;;;;;26.45;43.96;92864.66;5002335;28;20227;-71
2022/07/07 11:28:49;;;;;;;7.90;7.50;;;;;;;26.40;41.71;92877.59;5000785;28;20211;-72
2022/07/07 11:31:15;;;;;;;7.47;7.18;;;;;;;25.67;45.51;92864.97;5000932;28;20255;-72
2022/07/07 11:33:40;;;;;;;7.97;7.47;;;;;;;25.80;43.95;92868.97;5001149;28;20191;-72